sensor_id;sensor_type;location;lat;lon;timestamp;temperature;humidity
16801;DHT22;8518;53.236;10.384;2022-11-12T00:00:32;6.50;99.90
16801;DHT22;8518;53.236;10.384;2022-11-12T00:02:58;6.50;99.90
16801;DHT22;8518;53.236;10.384;2022-11-12T00:05:24;6.50;99.90
16801;DHT22;8518;53.236;10.384;2022-11-12T00:07:50;6.40;99.90
16801;DHT22;8518;53.236;10.384;2022-11-12T00:10:16;6.40;99.90
16801;DHT22;8518;53.236;10.384;2022-11-12T00:12:42;6.40;99.90
16801;DHT22;8518;53.236;10.384;2022-11-12T00:15:07;6.30;99.90
16801;DHT22;8518;53.236;10.384;2022-11-12T00:17:33;6.30;99.90
16801;DHT22;8518;53.236;10.384;2022-11-12T00:19:59;6.30;99.90
16801;DHT22;8518;53.236;10.384;2022-11-12T00:22:25;6.30;99.90
16801;DHT22;8518;53.236;10.384;2022-11-12T00:24:51;6.20;99.90
16801;DHT22;8518;53.236;10.384;2022-11-12T00:27:17;6.20;99.90
16801;DHT22;8518;53.236;10.384;2022-11-12T00:29:42;6.10;99.90
16801;DHT22;8518;53.236;10.384;2022-11-12T00:32:09;6.10;99.90
16801;DHT22;8518;53.236;10.384;2022-11-12T00:34:34;6.00;99.90
16801;DHT22;8518;53.236;10.384;2022-11-12T00:37:00;6.00;99.90
16801;DHT22;8518;53.236;10.384;2022-11-12T00:39:27;6.00;99.90
16801;DHT22;8518;53.236;10.384;2022-11-12T00:41:53;5.90;99.90
16801;DHT22;8518;53.236;10.384;2022-11-12T00:44:18;5.80;99.90
16801;DHT22;8518;53.236;10.384;2022-11-12T00:46:47;5.80;99.90
16801;DHT22;8518;53.236;10.384;2022-11-12T00:49:13;5.80;99.90
16801;DHT22;8518;53.236;10.384;2022-11-12T00:51:38;5.80;99.90
16801;DHT22;8518;53.236;10.384;2022-11-12T00:54:04;5.70;99.90
16801;DHT22;8518;53.236;10.384;2022-11-12T00:56:30;5.70;99.90
16801;DHT22;8518;53.236;10.384;2022-11-12T00:58:57;5.70;99.90
16801;DHT22;8518;53.236;10.384;2022-11-12T01:01:23;5.60;99.90
16801;DHT22;8518;53.236;10.384;2022-11-12T01:03:49;5.60;99.90
16801;DHT22;8518;53.236;10.384;2022-11-12T01:06:17;5.50;99.90
16801;DHT22;8518;53.236;10.384;2022-11-12T01:08:43;5.40;99.90
16801;DHT22;8518;53.236;10.384;2022-11-12T01:11:18;5.40;99.90
16801;DHT22;8518;53.236;10.384;2022-11-12T01:13:46;5.40;99.90
16801;DHT22;8518;53.236;10.384;2022-11-12T01:16:18;5.30;99.90
16801;DHT22;8518;53.236;10.384;2022-11-12T01:18:45;5.30;99.90
16801;DHT22;8518;53.236;10.384;2022-11-12T01:21:11;5.30;99.90
16801;DHT22;8518;53.236;10.384;2022-11-12T01:23:39;5.20;99.90
16801;DHT22;8518;53.236;10.384;2022-11-12T01:26:06;5.10;99.90
16801;DHT22;8518;53.236;10.384;2022-11-12T01:28:32;5.10;99.90
16801;DHT22;8518;53.236;10.384;2022-11-12T01:31:08;5.10;99.90
16801;DHT22;8518;53.236;10.384;2022-11-12T01:33:34;5.00;99.90
16801;DHT22;8518;53.236;10.384;2022-11-12T01:35:59;5.00;99.90
16801;DHT22;8518;53.236;10.384;2022-11-12T01:38:25;5.00;99.90
16801;DHT22;8518;53.236;10.384;2022-11-12T01:40:50;5.00;99.90
16801;DHT22;8518;53.236;10.384;2022-11-12T01:43:16;5.00;99.90
16801;DHT22;8518;53.236;10.384;2022-11-12T01:45:45;5.00;99.90
16801;DHT22;8518;53.236;10.384;2022-11-12T01:48:27;4.90;99.90
16801;DHT22;8518;53.236;10.384;2022-11-12T01:50:54;4.90;99.90
16801;DHT22;8518;53.236;10.384;2022-11-12T01:53:22;4.90;99.90
16801;DHT22;8518;53.236;10.384;2022-11-12T01:55:48;4.90;99.90
16801;DHT22;8518;53.236;10.384;2022-11-12T01:58:17;4.80;99.90
16801;DHT22;8518;53.236;10.384;2022-11-12T02:00:44;4.80;99.90
16801;DHT22;8518;53.236;10.384;2022-11-12T02:03:16;4.80;99.90
16801;DHT22;8518;53.236;10.384;2022-11-12T02:05:44;4.70;99.90
16801;DHT22;8518;53.236;10.384;2022-11-12T02:08:11;4.60;99.90
16801;DHT22;8518;53.236;10.384;2022-11-12T02:10:40;4.50;99.90
16801;DHT22;8518;53.236;10.384;2022-11-12T02:13:06;4.40;99.90
16801;DHT22;8518;53.236;10.384;2022-11-12T02:16:06;4.40;99.90
16801;DHT22;8518;53.236;10.384;2022-11-12T02:18:33;4.40;99.90
16801;DHT22;8518;53.236;10.384;2022-11-12T02:21:04;4.30;99.90
16801;DHT22;8518;53.236;10.384;2022-11-12T02:23:32;4.30;99.90
16801;DHT22;8518;53.236;10.384;2022-11-12T02:26:00;4.30;99.90
16801;DHT22;8518;53.236;10.384;2022-11-12T02:28:27;4.30;99.90
16801;DHT22;8518;53.236;10.384;2022-11-12T02:30:54;4.30;99.90
16801;DHT22;8518;53.236;10.384;2022-11-12T02:33:20;4.30;99.90
16801;DHT22;8518;53.236;10.384;2022-11-12T02:35:45;4.30;99.90
16801;DHT22;8518;53.236;10.384;2022-11-12T02:38:11;4.30;99.90
16801;DHT22;8518;53.236;10.384;2022-11-12T02:40:37;4.20;99.90
16801;DHT22;8518;53.236;10.384;2022-11-12T02:43:02;4.20;99.90
16801;DHT22;8518;53.236;10.384;2022-11-12T02:45:28;4.20;99.90
16801;DHT22;8518;53.236;10.384;2022-11-12T02:47:56;4.10;99.90
16801;DHT22;8518;53.236;10.384;2022-11-12T02:50:22;4.10;99.90
16801;DHT22;8518;53.236;10.384;2022-11-12T02:52:48;4.10;99.90
16801;DHT22;8518;53.236;10.384;2022-11-12T02:55:13;4.10;99.90
16801;DHT22;8518;53.236;10.384;2022-11-12T02:57:39;4.00;99.90
16801;DHT22;8518;53.236;10.384;2022-11-12T03:00:08;4.00;99.90
16801;DHT22;8518;53.236;10.384;2022-11-12T03:02:34;4.00;99.90
16801;DHT22;8518;53.236;10.384;2022-11-12T03:05:10;4.00;99.90
16801;DHT22;8518;53.236;10.384;2022-11-12T03:07:36;4.00;99.90
16801;DHT22;8518;53.236;10.384;2022-11-12T03:10:03;4.00;99.90
16801;DHT22;8518;53.236;10.384;2022-11-12T03:12:31;3.90;99.90
16801;DHT22;8518;53.236;10.384;2022-11-12T03:14:56;3.90;99.90
16801;DHT22;8518;53.236;10.384;2022-11-12T03:17:22;3.90;99.90
16801;DHT22;8518;53.236;10.384;2022-11-12T03:19:48;3.90;99.90
16801;DHT22;8518;53.236;10.384;2022-11-12T03:22:14;3.90;99.90
16801;DHT22;8518;53.236;10.384;2022-11-12T03:24:39;3.90;99.90
16801;DHT22;8518;53.236;10.384;2022-11-12T03:27:05;4.00;99.90
16801;DHT22;8518;53.236;10.384;2022-11-12T03:29:30;4.00;99.90
16801;DHT22;8518;53.236;10.384;2022-11-12T03:31:56;4.00;99.90
16801;DHT22;8518;53.236;10.384;2022-11-12T03:34:21;4.00;99.90
16801;DHT22;8518;53.236;10.384;2022-11-12T03:36:47;4.00;99.90
16801;DHT22;8518;53.236;10.384;2022-11-12T03:39:13;4.00;99.90
16801;DHT22;8518;53.236;10.384;2022-11-12T03:41:38;4.00;99.90
16801;DHT22;8518;53.236;10.384;2022-11-12T03:44:04;3.90;99.90
16801;DHT22;8518;53.236;10.384;2022-11-12T03:46:29;3.90;99.90
16801;DHT22;8518;53.236;10.384;2022-11-12T03:48:55;3.80;99.90
16801;DHT22;8518;53.236;10.384;2022-11-12T03:51:21;3.90;99.90
16801;DHT22;8518;53.236;10.384;2022-11-12T03:53:47;3.90;99.90
16801;DHT22;8518;53.236;10.384;2022-11-12T03:56:12;3.90;99.90
16801;DHT22;8518;53.236;10.384;2022-11-12T03:58:38;3.90;99.90
16801;DHT22;8518;53.236;10.384;2022-11-12T04:01:04;3.90;99.90
16801;DHT22;8518;53.236;10.384;2022-11-12T04:03:29;3.80;99.90
16801;DHT22;8518;53.236;10.384;2022-11-12T04:05:55;3.80;99.90
16801;DHT22;8518;53.236;10.384;2022-11-12T04:08:39;3.80;99.90
16801;DHT22;8518;53.236;10.384;2022-11-12T04:11:08;3.80;99.90
16801;DHT22;8518;53.236;10.384;2022-11-12T04:13:36;3.80;99.90
16801;DHT22;8518;53.236;10.384;2022-11-12T04:16:08;3.80;99.90
16801;DHT22;8518;53.236;10.384;2022-11-12T04:18:55;3.80;99.90
16801;DHT22;8518;53.236;10.384;2022-11-12T04:21:48;3.70;99.90
16801;DHT22;8518;53.236;10.384;2022-11-12T04:24:39;3.70;99.90
16801;DHT22;8518;53.236;10.384;2022-11-12T04:27:29;3.70;99.90
16801;DHT22;8518;53.236;10.384;2022-11-12T04:29:55;3.70;99.90
16801;DHT22;8518;53.236;10.384;2022-11-12T04:32:49;3.70;99.90
16801;DHT22;8518;53.236;10.384;2022-11-12T04:35:15;3.60;99.90
16801;DHT22;8518;53.236;10.384;2022-11-12T04:37:41;3.60;99.90
16801;DHT22;8518;53.236;10.384;2022-11-12T04:40:21;3.60;99.90
16801;DHT22;8518;53.236;10.384;2022-11-12T04:43:09;3.60;99.90
16801;DHT22;8518;53.236;10.384;2022-11-12T04:45:54;3.60;99.90
16801;DHT22;8518;53.236;10.384;2022-11-12T04:48:21;3.60;99.90
16801;DHT22;8518;53.236;10.384;2022-11-12T04:50:52;3.60;99.90
16801;DHT22;8518;53.236;10.384;2022-11-12T04:53:18;3.50;99.90
16801;DHT22;8518;53.236;10.384;2022-11-12T04:55:43;3.50;99.90
16801;DHT22;8518;53.236;10.384;2022-11-12T04:58:09;3.40;99.90
16801;DHT22;8518;53.236;10.384;2022-11-12T05:00:34;3.40;99.90
16801;DHT22;8518;53.236;10.384;2022-11-12T05:03:00;3.40;99.90
16801;DHT22;8518;53.236;10.384;2022-11-12T05:05:25;3.40;99.90
16801;DHT22;8518;53.236;10.384;2022-11-12T05:07:51;3.40;99.90
16801;DHT22;8518;53.236;10.384;2022-11-12T05:10:16;3.40;99.90
16801;DHT22;8518;53.236;10.384;2022-11-12T05:12:42;3.40;99.90
16801;DHT22;8518;53.236;10.384;2022-11-12T05:15:09;3.40;99.90
16801;DHT22;8518;53.236;10.384;2022-11-12T05:17:40;3.40;99.90
16801;DHT22;8518;53.236;10.384;2022-11-12T05:20:06;3.40;99.90
16801;DHT22;8518;53.236;10.384;2022-11-12T05:22:32;3.40;99.90
16801;DHT22;8518;53.236;10.384;2022-11-12T05:24:58;3.50;99.90
16801;DHT22;8518;53.236;10.384;2022-11-12T05:27:23;3.50;99.90
16801;DHT22;8518;53.236;10.384;2022-11-12T05:29:49;3.50;99.90
16801;DHT22;8518;53.236;10.384;2022-11-12T05:32:15;3.60;99.90
16801;DHT22;8518;53.236;10.384;2022-11-12T05:34:40;3.50;99.90
16801;DHT22;8518;53.236;10.384;2022-11-12T05:37:06;3.50;99.90
16801;DHT22;8518;53.236;10.384;2022-11-12T05:39:32;3.50;99.90
16801;DHT22;8518;53.236;10.384;2022-11-12T05:41:58;3.50;99.90
16801;DHT22;8518;53.236;10.384;2022-11-12T05:44:23;3.50;99.90
16801;DHT22;8518;53.236;10.384;2022-11-12T05:46:49;3.50;99.90
16801;DHT22;8518;53.236;10.384;2022-11-12T05:49:15;3.50;99.90
16801;DHT22;8518;53.236;10.384;2022-11-12T05:51:41;3.50;99.90
16801;DHT22;8518;53.236;10.384;2022-11-12T05:54:07;3.50;99.90
16801;DHT22;8518;53.236;10.384;2022-11-12T05:56:32;3.50;99.90
16801;DHT22;8518;53.236;10.384;2022-11-12T05:58:58;3.50;99.90
16801;DHT22;8518;53.236;10.384;2022-11-12T06:01:24;3.50;99.90
16801;DHT22;8518;53.236;10.384;2022-11-12T06:03:50;3.50;99.90
16801;DHT22;8518;53.236;10.384;2022-11-12T06:06:15;3.50;99.90
16801;DHT22;8518;53.236;10.384;2022-11-12T06:08:41;3.50;99.90
16801;DHT22;8518;53.236;10.384;2022-11-12T06:11:06;3.50;99.90
16801;DHT22;8518;53.236;10.384;2022-11-12T06:13:32;3.50;99.90
16801;DHT22;8518;53.236;10.384;2022-11-12T06:15:57;3.50;99.90
16801;DHT22;8518;53.236;10.384;2022-11-12T06:18:23;3.50;99.90
16801;DHT22;8518;53.236;10.384;2022-11-12T06:20:49;3.60;99.90
16801;DHT22;8518;53.236;10.384;2022-11-12T06:23:34;3.60;99.90
16801;DHT22;8518;53.236;10.384;2022-11-12T06:26:00;3.60;99.90
16801;DHT22;8518;53.236;10.384;2022-11-12T06:28:26;3.70;99.90
16801;DHT22;8518;53.236;10.384;2022-11-12T06:30:52;3.70;99.90
16801;DHT22;8518;53.236;10.384;2022-11-12T06:33:17;3.70;99.90
16801;DHT22;8518;53.236;10.384;2022-11-12T06:35:43;3.70;99.90
16801;DHT22;8518;53.236;10.384;2022-11-12T06:38:08;3.70;99.90
16801;DHT22;8518;53.236;10.384;2022-11-12T06:40:34;3.70;99.90
16801;DHT22;8518;53.236;10.384;2022-11-12T06:42:59;3.80;99.90
16801;DHT22;8518;53.236;10.384;2022-11-12T06:45:25;3.80;99.90
16801;DHT22;8518;53.236;10.384;2022-11-12T06:47:50;3.90;99.90
16801;DHT22;8518;53.236;10.384;2022-11-12T06:50:16;3.90;99.90
16801;DHT22;8518;53.236;10.384;2022-11-12T06:52:41;3.90;99.90
16801;DHT22;8518;53.236;10.384;2022-11-12T06:55:07;3.90;99.90
16801;DHT22;8518;53.236;10.384;2022-11-12T06:57:33;3.90;99.90
16801;DHT22;8518;53.236;10.384;2022-11-12T06:59:58;3.90;99.90
16801;DHT22;8518;53.236;10.384;2022-11-12T07:02:24;4.00;99.90
16801;DHT22;8518;53.236;10.384;2022-11-12T07:04:49;4.10;99.90
16801;DHT22;8518;53.236;10.384;2022-11-12T07:07:15;4.00;99.90
16801;DHT22;8518;53.236;10.384;2022-11-12T07:09:41;4.10;99.90
16801;DHT22;8518;53.236;10.384;2022-11-12T07:12:06;4.40;99.90
16801;DHT22;8518;53.236;10.384;2022-11-12T07:14:32;5.10;99.90
16801;DHT22;8518;53.236;10.384;2022-11-12T07:16:57;6.20;99.90
16801;DHT22;8518;53.236;10.384;2022-11-12T07:19:23;7.00;99.90
16801;DHT22;8518;53.236;10.384;2022-11-12T07:21:48;7.60;99.90
16801;DHT22;8518;53.236;10.384;2022-11-12T07:24:14;8.80;99.90
16801;DHT22;8518;53.236;10.384;2022-11-12T07:26:39;10.20;99.90
16801;DHT22;8518;53.236;10.384;2022-11-12T07:29:05;11.70;99.90
16801;DHT22;8518;53.236;10.384;2022-11-12T07:31:31;13.20;99.90
16801;DHT22;8518;53.236;10.384;2022-11-12T07:33:57;13.90;99.90
16801;DHT22;8518;53.236;10.384;2022-11-12T07:36:22;13.80;99.90
16801;DHT22;8518;53.236;10.384;2022-11-12T07:38:49;13.40;99.90
16801;DHT22;8518;53.236;10.384;2022-11-12T07:41:16;12.90;99.90
16801;DHT22;8518;53.236;10.384;2022-11-12T07:43:43;12.40;99.90
16801;DHT22;8518;53.236;10.384;2022-11-12T07:46:13;12.10;99.90
16801;DHT22;8518;53.236;10.384;2022-11-12T07:48:38;12.20;99.90
16801;DHT22;8518;53.236;10.384;2022-11-12T07:51:11;12.60;99.90
16801;DHT22;8518;53.236;10.384;2022-11-12T07:53:37;13.30;99.90
16801;DHT22;8518;53.236;10.384;2022-11-12T07:56:03;13.80;99.90
16801;DHT22;8518;53.236;10.384;2022-11-12T07:58:29;13.70;99.90
16801;DHT22;8518;53.236;10.384;2022-11-12T08:00:55;13.20;99.90
16801;DHT22;8518;53.236;10.384;2022-11-12T08:03:20;12.50;99.90
16801;DHT22;8518;53.236;10.384;2022-11-12T08:05:46;12.30;99.90
16801;DHT22;8518;53.236;10.384;2022-11-12T08:08:12;12.90;99.90
16801;DHT22;8518;53.236;10.384;2022-11-12T08:10:37;13.80;99.90
16801;DHT22;8518;53.236;10.384;2022-11-12T08:13:03;14.70;99.90
16801;DHT22;8518;53.236;10.384;2022-11-12T08:15:29;15.40;99.90
16801;DHT22;8518;53.236;10.384;2022-11-12T08:17:54;15.80;99.90
16801;DHT22;8518;53.236;10.384;2022-11-12T08:20:20;16.10;99.90
16801;DHT22;8518;53.236;10.384;2022-11-12T08:22:45;16.00;99.90
16801;DHT22;8518;53.236;10.384;2022-11-12T08:25:11;16.00;99.90
16801;DHT22;8518;53.236;10.384;2022-11-12T08:27:36;16.20;99.90
16801;DHT22;8518;53.236;10.384;2022-11-12T08:30:02;16.70;99.90
16801;DHT22;8518;53.236;10.384;2022-11-12T08:32:29;17.30;99.70
16801;DHT22;8518;53.236;10.384;2022-11-12T08:34:54;17.60;99.60
16801;DHT22;8518;53.236;10.384;2022-11-12T08:37:20;18.00;99.10
16801;DHT22;8518;53.236;10.384;2022-11-12T08:39:45;19.20;98.20
16801;DHT22;8518;53.236;10.384;2022-11-12T08:42:11;20.70;95.10
16801;DHT22;8518;53.236;10.384;2022-11-12T08:44:36;22.10;92.20
16801;DHT22;8518;53.236;10.384;2022-11-12T08:47:02;23.40;89.50
16801;DHT22;8518;53.236;10.384;2022-11-12T08:49:28;24.50;82.50
16801;DHT22;8518;53.236;10.384;2022-11-12T08:51:54;25.30;79.30
16801;DHT22;8518;53.236;10.384;2022-11-12T08:54:20;25.90;73.90
16801;DHT22;8518;53.236;10.384;2022-11-12T08:56:46;26.40;69.40
16801;DHT22;8518;53.236;10.384;2022-11-12T08:59:12;26.70;67.00
16801;DHT22;8518;53.236;10.384;2022-11-12T09:01:38;27.20;65.40
16801;DHT22;8518;53.236;10.384;2022-11-12T09:04:03;27.80;62.30
16801;DHT22;8518;53.236;10.384;2022-11-12T09:06:29;28.40;59.30
16801;DHT22;8518;53.236;10.384;2022-11-12T09:08:56;28.70;57.20
16801;DHT22;8518;53.236;10.384;2022-11-12T09:11:21;28.40;56.60
16801;DHT22;8518;53.236;10.384;2022-11-12T09:13:51;28.20;56.10
16801;DHT22;8518;53.236;10.384;2022-11-12T09:16:16;28.20;55.40
16801;DHT22;8518;53.236;10.384;2022-11-12T09:18:42;28.50;55.40
16801;DHT22;8518;53.236;10.384;2022-11-12T09:21:10;29.00;54.70
16801;DHT22;8518;53.236;10.384;2022-11-12T09:23:37;29.60;53.30
16801;DHT22;8518;53.236;10.384;2022-11-12T09:26:03;30.20;52.20
16801;DHT22;8518;53.236;10.384;2022-11-12T09:28:29;30.70;51.10
16801;DHT22;8518;53.236;10.384;2022-11-12T09:30:54;31.00;49.70
16801;DHT22;8518;53.236;10.384;2022-11-12T09:33:23;30.90;49.30
16801;DHT22;8518;53.236;10.384;2022-11-12T09:35:50;30.80;49.20
16801;DHT22;8518;53.236;10.384;2022-11-12T09:38:16;31.00;49.60
16801;DHT22;8518;53.236;10.384;2022-11-12T09:45:48;32.60;47.30
16801;DHT22;8518;53.236;10.384;2022-11-12T09:48:19;33.30;45.70
16801;DHT22;8518;53.236;10.384;2022-11-12T09:53:59;34.10;43.60
16801;DHT22;8518;53.236;10.384;2022-11-12T09:56:26;34.70;43.50
16801;DHT22;8518;53.236;10.384;2022-11-12T09:58:55;35.10;42.30
16801;DHT22;8518;53.236;10.384;2022-11-12T10:04:41;35.10;41.60
16801;DHT22;8518;53.236;10.384;2022-11-12T10:10:15;35.40;41.20
16801;DHT22;8518;53.236;10.384;2022-11-12T10:15:31;35.30;40.80
16801;DHT22;8518;53.236;10.384;2022-11-12T10:21:40;35.60;40.20
16801;DHT22;8518;53.236;10.384;2022-11-12T10:24:10;35.60;40.00
16801;DHT22;8518;53.236;10.384;2022-11-12T10:26:37;35.90;39.40
16801;DHT22;8518;53.236;10.384;2022-11-12T10:31:34;36.10;39.20
16801;DHT22;8518;53.236;10.384;2022-11-12T10:36:41;36.50;39.20
16801;DHT22;8518;53.236;10.384;2022-11-12T10:39:08;36.60;39.10
16801;DHT22;8518;53.236;10.384;2022-11-12T10:41:34;36.90;39.40
16801;DHT22;8518;53.236;10.384;2022-11-12T10:44:02;37.20;39.50
16801;DHT22;8518;53.236;10.384;2022-11-12T10:46:33;37.30;39.10
16801;DHT22;8518;53.236;10.384;2022-11-12T10:49:25;37.60;38.00
16801;DHT22;8518;53.236;10.384;2022-11-12T10:51:55;37.60;37.50
16801;DHT22;8518;53.236;10.384;2022-11-12T10:54:36;37.80;37.00
16801;DHT22;8518;53.236;10.384;2022-11-12T10:57:22;37.70;36.70
16801;DHT22;8518;53.236;10.384;2022-11-12T11:02:33;38.10;36.10
16801;DHT22;8518;53.236;10.384;2022-11-12T11:04:59;37.50;36.10
16801;DHT22;8518;53.236;10.384;2022-11-12T11:07:25;36.40;37.10
16801;DHT22;8518;53.236;10.384;2022-11-12T11:09:56;35.20;37.90
16801;DHT22;8518;53.236;10.384;2022-11-12T11:12:32;33.80;39.20
16801;DHT22;8518;53.236;10.384;2022-11-12T11:15:17;32.50;40.90
16801;DHT22;8518;53.236;10.384;2022-11-12T11:17:43;31.10;42.30
16801;DHT22;8518;53.236;10.384;2022-11-12T11:20:24;30.00;43.50
16801;DHT22;8518;53.236;10.384;2022-11-12T11:22:55;29.10;44.00
16801;DHT22;8518;53.236;10.384;2022-11-12T11:25:26;28.70;45.00
16801;DHT22;8518;53.236;10.384;2022-11-12T11:28:00;28.50;45.50
16801;DHT22;8518;53.236;10.384;2022-11-12T11:30:29;28.40;46.20
16801;DHT22;8518;53.236;10.384;2022-11-12T11:33:19;28.40;47.00
16801;DHT22;8518;53.236;10.384;2022-11-12T11:41:10;27.90;47.20
16801;DHT22;8518;53.236;10.384;2022-11-12T11:49:06;27.30;47.60
16801;DHT22;8518;53.236;10.384;2022-11-12T11:51:58;26.70;48.40
16801;DHT22;8518;53.236;10.384;2022-11-12T11:57:19;25.10;51.70
16801;DHT22;8518;53.236;10.384;2022-11-12T12:05:37;22.60;57.30
16801;DHT22;8518;53.236;10.384;2022-11-12T12:08:54;21.80;59.60
16801;DHT22;8518;53.236;10.384;2022-11-12T12:22:13;18.40;81.60
16801;DHT22;8518;53.236;10.384;2022-11-12T12:24:52;18.30;85.60
16801;DHT22;8518;53.236;10.384;2022-11-12T12:27:34;18.20;87.50
16801;DHT22;8518;53.236;10.384;2022-11-12T12:30:20;18.30;88.90
16801;DHT22;8518;53.236;10.384;2022-11-12T12:33:27;18.30;89.10
16801;DHT22;8518;53.236;10.384;2022-11-12T12:36:08;18.30;88.10
16801;DHT22;8518;53.236;10.384;2022-11-12T12:38:43;18.10;89.10
16801;DHT22;8518;53.236;10.384;2022-11-12T12:44:01;18.10;90.50
16801;DHT22;8518;53.236;10.384;2022-11-12T12:46:30;18.30;90.60
16801;DHT22;8518;53.236;10.384;2022-11-12T12:48:58;19.60;87.50
16801;DHT22;8518;53.236;10.384;2022-11-12T12:51:28;20.00;84.80
16801;DHT22;8518;53.236;10.384;2022-11-12T12:53:55;19.90;84.70
16801;DHT22;8518;53.236;10.384;2022-11-12T12:58:56;19.00;87.30
16801;DHT22;8518;53.236;10.384;2022-11-12T13:03:54;18.30;90.00
16801;DHT22;8518;53.236;10.384;2022-11-12T13:09:03;17.70;91.90
16801;DHT22;8518;53.236;10.384;2022-11-12T13:17:11;16.80;94.20
16801;DHT22;8518;53.236;10.384;2022-11-12T13:32:53;15.90;99.40
16801;DHT22;8518;53.236;10.384;2022-11-12T13:40:49;15.90;99.90
16801;DHT22;8518;53.236;10.384;2022-11-12T13:48:47;15.90;99.90
16801;DHT22;8518;53.236;10.384;2022-11-12T13:51:15;15.80;99.90
16801;DHT22;8518;53.236;10.384;2022-11-12T13:53:42;15.80;99.90
16801;DHT22;8518;53.236;10.384;2022-11-12T13:56:10;15.70;99.90
16801;DHT22;8518;53.236;10.384;2022-11-12T13:58:37;15.60;99.90
16801;DHT22;8518;53.236;10.384;2022-11-12T14:01:10;15.50;99.90
16801;DHT22;8518;53.236;10.384;2022-11-12T14:03:46;15.40;99.90
16801;DHT22;8518;53.236;10.384;2022-11-12T14:06:33;15.30;99.90
16801;DHT22;8518;53.236;10.384;2022-11-12T14:09:11;15.20;99.90
16801;DHT22;8518;53.236;10.384;2022-11-12T14:20:23;14.90;99.90
16801;DHT22;8518;53.236;10.384;2022-11-12T14:22:50;15.00;99.90
16801;DHT22;8518;53.236;10.384;2022-11-12T14:25:19;15.00;99.90
16801;DHT22;8518;53.236;10.384;2022-11-12T14:27:50;14.90;99.90
16801;DHT22;8518;53.236;10.384;2022-11-12T14:32:49;15.30;99.90
16801;DHT22;8518;53.236;10.384;2022-11-12T14:35:32;16.20;99.90
16801;DHT22;8518;53.236;10.384;2022-11-12T14:38:11;17.00;99.90
16801;DHT22;8518;53.236;10.384;2022-11-12T14:40:43;17.40;99.90
16801;DHT22;8518;53.236;10.384;2022-11-12T14:43:37;17.30;99.90
16801;DHT22;8518;53.236;10.384;2022-11-12T14:46:07;17.10;99.90
16801;DHT22;8518;53.236;10.384;2022-11-12T14:51:19;16.30;99.90
16801;DHT22;8518;53.236;10.384;2022-11-12T14:53:51;15.80;99.90
16801;DHT22;8518;53.236;10.384;2022-11-12T14:56:40;15.20;99.90
16801;DHT22;8518;53.236;10.384;2022-11-12T14:59:09;14.60;99.90
16801;DHT22;8518;53.236;10.384;2022-11-12T15:01:38;14.10;99.90
16801;DHT22;8518;53.236;10.384;2022-11-12T15:06:36;13.30;99.90
16801;DHT22;8518;53.236;10.384;2022-11-12T15:09:02;13.00;99.90
16801;DHT22;8518;53.236;10.384;2022-11-12T15:11:36;12.80;99.90
16801;DHT22;8518;53.236;10.384;2022-11-12T15:14:12;12.60;99.90
16801;DHT22;8518;53.236;10.384;2022-11-12T15:16:44;12.50;99.90
16801;DHT22;8518;53.236;10.384;2022-11-12T15:21:47;12.30;99.90
16801;DHT22;8518;53.236;10.384;2022-11-12T15:26:45;12.00;99.90
16801;DHT22;8518;53.236;10.384;2022-11-12T15:29:25;11.80;99.90
16801;DHT22;8518;53.236;10.384;2022-11-12T15:32:00;11.70;99.90
16801;DHT22;8518;53.236;10.384;2022-11-12T15:34:43;11.50;99.90
16801;DHT22;8518;53.236;10.384;2022-11-12T15:39:49;11.00;99.90
16801;DHT22;8518;53.236;10.384;2022-11-12T15:42:22;10.90;99.90
16801;DHT22;8518;53.236;10.384;2022-11-12T15:44:51;10.70;99.90
16801;DHT22;8518;53.236;10.384;2022-11-12T15:47:20;10.60;99.90
16801;DHT22;8518;53.236;10.384;2022-11-12T15:49:48;10.50;99.90
16801;DHT22;8518;53.236;10.384;2022-11-12T15:52:14;10.30;99.90
16801;DHT22;8518;53.236;10.384;2022-11-12T15:54:39;10.20;99.90
16801;DHT22;8518;53.236;10.384;2022-11-12T15:57:09;10.10;99.90
16801;DHT22;8518;53.236;10.384;2022-11-12T15:59:36;10.00;99.90
16801;DHT22;8518;53.236;10.384;2022-11-12T16:02:01;9.90;99.90
16801;DHT22;8518;53.236;10.384;2022-11-12T16:04:27;9.80;99.90
16801;DHT22;8518;53.236;10.384;2022-11-12T16:06:53;9.70;99.90
16801;DHT22;8518;53.236;10.384;2022-11-12T16:09:18;9.70;99.90
16801;DHT22;8518;53.236;10.384;2022-11-12T16:11:51;9.60;99.90
16801;DHT22;8518;53.236;10.384;2022-11-12T16:14:21;9.50;99.90
16801;DHT22;8518;53.236;10.384;2022-11-12T16:16:47;9.40;99.90
16801;DHT22;8518;53.236;10.384;2022-11-12T16:19:13;9.40;99.90
16801;DHT22;8518;53.236;10.384;2022-11-12T16:21:39;9.30;99.90
16801;DHT22;8518;53.236;10.384;2022-11-12T16:24:06;9.20;99.90
16801;DHT22;8518;53.236;10.384;2022-11-12T16:26:31;9.20;99.90
16801;DHT22;8518;53.236;10.384;2022-11-12T16:28:58;9.10;99.90
16801;DHT22;8518;53.236;10.384;2022-11-12T16:31:25;9.10;99.90
16801;DHT22;8518;53.236;10.384;2022-11-12T16:33:50;9.00;99.90
16801;DHT22;8518;53.236;10.384;2022-11-12T16:36:16;9.00;99.90
16801;DHT22;8518;53.236;10.384;2022-11-12T16:38:42;8.90;99.90
16801;DHT22;8518;53.236;10.384;2022-11-12T16:41:11;8.80;99.90
16801;DHT22;8518;53.236;10.384;2022-11-12T16:43:37;8.70;99.90
16801;DHT22;8518;53.236;10.384;2022-11-12T16:46:14;8.60;99.90
16801;DHT22;8518;53.236;10.384;2022-11-12T16:48:40;8.60;99.90
16801;DHT22;8518;53.236;10.384;2022-11-12T16:51:07;8.50;99.90
16801;DHT22;8518;53.236;10.384;2022-11-12T16:53:34;8.50;99.90
16801;DHT22;8518;53.236;10.384;2022-11-12T16:56:00;8.40;99.90
16801;DHT22;8518;53.236;10.384;2022-11-12T16:58:25;8.40;99.90
16801;DHT22;8518;53.236;10.384;2022-11-12T17:00:51;8.40;99.90
16801;DHT22;8518;53.236;10.384;2022-11-12T17:03:17;8.40;99.90
16801;DHT22;8518;53.236;10.384;2022-11-12T17:05:43;8.30;99.90
16801;DHT22;8518;53.236;10.384;2022-11-12T17:08:14;8.30;99.90
16801;DHT22;8518;53.236;10.384;2022-11-12T17:10:40;8.30;99.90
16801;DHT22;8518;53.236;10.384;2022-11-12T17:13:06;8.30;99.90
16801;DHT22;8518;53.236;10.384;2022-11-12T17:15:31;8.20;99.90
16801;DHT22;8518;53.236;10.384;2022-11-12T17:17:57;8.20;99.90
16801;DHT22;8518;53.236;10.384;2022-11-12T17:20:22;8.10;99.90
16801;DHT22;8518;53.236;10.384;2022-11-12T17:22:48;8.00;99.90
16801;DHT22;8518;53.236;10.384;2022-11-12T17:25:14;8.00;99.90
16801;DHT22;8518;53.236;10.384;2022-11-12T17:27:39;7.80;99.90
16801;DHT22;8518;53.236;10.384;2022-11-12T17:30:05;7.70;99.90
16801;DHT22;8518;53.236;10.384;2022-11-12T17:32:31;7.60;99.90
16801;DHT22;8518;53.236;10.384;2022-11-12T17:34:57;7.50;99.90
16801;DHT22;8518;53.236;10.384;2022-11-12T17:37:22;7.50;99.90
16801;DHT22;8518;53.236;10.384;2022-11-12T17:39:48;7.40;99.90
16801;DHT22;8518;53.236;10.384;2022-11-12T17:42:14;7.40;99.90
16801;DHT22;8518;53.236;10.384;2022-11-12T17:44:43;7.30;99.90
16801;DHT22;8518;53.236;10.384;2022-11-12T17:47:11;7.30;99.90
16801;DHT22;8518;53.236;10.384;2022-11-12T17:49:37;7.20;99.90
16801;DHT22;8518;53.236;10.384;2022-11-12T17:52:03;7.20;99.90